sensor_id;sensor_type;location;lat;lon;timestamp;temperature;humidity
29207;DHT22;16247;50.840;4.382;2023-04-01T00:00:15;10.60;99.90
29207;DHT22;16247;50.840;4.382;2023-04-01T00:03:08;10.40;99.90
29207;DHT22;16247;50.840;4.382;2023-04-01T00:06:01;10.40;99.90
29207;DHT22;16247;50.840;4.382;2023-04-01T00:09:09;10.60;99.90
29207;DHT22;16247;50.840;4.382;2023-04-01T00:11:47;10.60;99.90
29207;DHT22;16247;50.840;4.382;2023-04-01T00:14:15;10.50;99.90
29207;DHT22;16247;50.840;4.382;2023-04-01T00:16:45;10.60;99.90
29207;DHT22;16247;50.840;4.382;2023-04-01T00:19:17;10.40;99.90
29207;DHT22;16247;50.840;4.382;2023-04-01T00:22:13;10.40;99.90
29207;DHT22;16247;50.840;4.382;2023-04-01T00:24:41;10.40;99.90
29207;DHT22;16247;50.840;4.382;2023-04-01T00:27:49;10.50;99.90
29207;DHT22;16247;50.840;4.382;2023-04-01T00:31:09;10.40;99.90
29207;DHT22;16247;50.840;4.382;2023-04-01T00:33:57;10.40;99.90
29207;DHT22;16247;50.840;4.382;2023-04-01T00:37:03;10.40;99.90
29207;DHT22;16247;50.840;4.382;2023-04-01T00:39:56;10.50;99.90
29207;DHT22;16247;50.840;4.382;2023-04-01T00:43:09;10.30;99.90
29207;DHT22;16247;50.840;4.382;2023-04-01T00:45:42;10.40;99.90
29207;DHT22;16247;50.840;4.382;2023-04-01T00:48:39;10.40;99.90
29207;DHT22;16247;50.840;4.382;2023-04-01T00:51:27;10.30;99.90
29207;DHT22;16247;50.840;4.382;2023-04-01T00:54:58;10.40;99.90
29207;DHT22;16247;50.840;4.382;2023-04-01T00:57:35;10.40;99.90
29207;DHT22;16247;50.840;4.382;2023-04-01T01:00:21;10.50;99.90
29207;DHT22;16247;50.840;4.382;2023-04-01T01:03:13;10.50;99.90
29207;DHT22;16247;50.840;4.382;2023-04-01T01:16:18;10.50;99.90
29207;DHT22;16247;50.840;4.382;2023-04-01T01:35:31;10.60;99.90
29207;DHT22;16247;50.840;4.382;2023-04-01T01:38:49;10.60;99.90
29207;DHT22;16247;50.840;4.382;2023-04-01T01:42:39;10.60;99.90
29207;DHT22;16247;50.840;4.382;2023-04-01T01:45:54;10.70;99.90
29207;DHT22;16247;50.840;4.382;2023-04-01T01:49:04;10.70;99.90
29207;DHT22;16247;50.840;4.382;2023-04-01T01:52:04;10.70;99.90
29207;DHT22;16247;50.840;4.382;2023-04-01T01:54:59;10.70;99.90
29207;DHT22;16247;50.840;4.382;2023-04-01T02:01:14;10.60;99.90
29207;DHT22;16247;50.840;4.382;2023-04-01T02:04:35;10.60;99.90
29207;DHT22;16247;50.840;4.382;2023-04-01T02:07:39;10.70;99.90
29207;DHT22;16247;50.840;4.382;2023-04-01T02:10:31;10.80;99.90
29207;DHT22;16247;50.840;4.382;2023-04-01T02:13:56;10.80;99.90
29207;DHT22;16247;50.840;4.382;2023-04-01T02:19:26;10.60;99.90
29207;DHT22;16247;50.840;4.382;2023-04-01T02:22:11;10.70;99.90
29207;DHT22;16247;50.840;4.382;2023-04-01T02:24:58;10.60;99.90
29207;DHT22;16247;50.840;4.382;2023-04-01T02:27:38;10.70;99.90
29207;DHT22;16247;50.840;4.382;2023-04-01T02:30:44;10.70;99.90
29207;DHT22;16247;50.840;4.382;2023-04-01T02:33:30;10.70;99.90
29207;DHT22;16247;50.840;4.382;2023-04-01T02:36:13;10.60;99.90
29207;DHT22;16247;50.840;4.382;2023-04-01T02:39:15;10.60;99.90
29207;DHT22;16247;50.840;4.382;2023-04-01T02:42:07;10.60;99.90
29207;DHT22;16247;50.840;4.382;2023-04-01T02:44:57;10.40;99.90
29207;DHT22;16247;50.840;4.382;2023-04-01T02:47:27;10.50;99.90
29207;DHT22;16247;50.840;4.382;2023-04-01T02:50:20;10.60;99.90
29207;DHT22;16247;50.840;4.382;2023-04-01T02:53:15;10.60;99.90
29207;DHT22;16247;50.840;4.382;2023-04-01T02:59:15;10.60;99.90
29207;DHT22;16247;50.840;4.382;2023-04-01T03:04:16;10.70;99.90
29207;DHT22;16247;50.840;4.382;2023-04-01T03:06:58;10.60;99.90
29207;DHT22;16247;50.840;4.382;2023-04-01T03:09:45;10.80;99.90
29207;DHT22;16247;50.840;4.382;2023-04-01T03:15:49;10.60;99.90
29207;DHT22;16247;50.840;4.382;2023-04-01T03:18:46;10.60;99.90
29207;DHT22;16247;50.840;4.382;2023-04-01T03:24:39;10.50;99.90
29207;DHT22;16247;50.840;4.382;2023-04-01T03:27:21;10.60;99.90
29207;DHT22;16247;50.840;4.382;2023-04-01T03:29:46;10.50;99.90
29207;DHT22;16247;50.840;4.382;2023-04-01T03:32:32;10.50;99.90
29207;DHT22;16247;50.840;4.382;2023-04-01T03:35:08;10.50;99.90
29207;DHT22;16247;50.840;4.382;2023-04-01T03:37:40;10.50;99.90
29207;DHT22;16247;50.840;4.382;2023-04-01T03:40:31;10.50;99.90
29207;DHT22;16247;50.840;4.382;2023-04-01T03:45:48;10.50;99.90
29207;DHT22;16247;50.840;4.382;2023-04-01T03:51:52;10.30;99.90
29207;DHT22;16247;50.840;4.382;2023-04-01T03:54:32;10.30;99.90
29207;DHT22;16247;50.840;4.382;2023-04-01T03:57:02;10.30;99.90
29207;DHT22;16247;50.840;4.382;2023-04-01T04:02:32;10.40;99.90
29207;DHT22;16247;50.840;4.382;2023-04-01T04:05:23;10.50;99.90
29207;DHT22;16247;50.840;4.382;2023-04-01T04:07:50;10.60;99.90
29207;DHT22;16247;50.840;4.382;2023-04-01T04:13:38;10.60;99.90
29207;DHT22;16247;50.840;4.382;2023-04-01T04:16:26;10.60;99.90
29207;DHT22;16247;50.840;4.382;2023-04-01T04:18:54;10.70;99.90
29207;DHT22;16247;50.840;4.382;2023-04-01T04:25:07;10.80;99.90
29207;DHT22;16247;50.840;4.382;2023-04-01T04:28:33;10.60;99.90
29207;DHT22;16247;50.840;4.382;2023-04-01T04:32:00;10.60;99.90
29207;DHT22;16247;50.840;4.382;2023-04-01T04:41:50;10.40;99.90
29207;DHT22;16247;50.840;4.382;2023-04-01T04:47:24;10.30;99.90
29207;DHT22;16247;50.840;4.382;2023-04-01T04:50:22;10.40;99.90
29207;DHT22;16247;50.840;4.382;2023-04-01T04:53:48;10.40;99.90
29207;DHT22;16247;50.840;4.382;2023-04-01T05:22:43;10.40;99.90
29207;DHT22;16247;50.840;4.382;2023-04-01T05:25:20;10.30;99.90
29207;DHT22;16247;50.840;4.382;2023-04-01T05:30:26;10.30;99.90
29207;DHT22;16247;50.840;4.382;2023-04-01T05:33:00;10.50;99.90
29207;DHT22;16247;50.840;4.382;2023-04-01T05:35:27;10.50;99.90
29207;DHT22;16247;50.840;4.382;2023-04-01T05:37:53;10.40;99.90
29207;DHT22;16247;50.840;4.382;2023-04-01T05:40:40;10.50;99.90
29207;DHT22;16247;50.840;4.382;2023-04-01T05:43:16;10.40;99.90
29207;DHT22;16247;50.840;4.382;2023-04-01T05:46:18;10.30;99.90
29207;DHT22;16247;50.840;4.382;2023-04-01T05:48:45;10.50;99.90
29207;DHT22;16247;50.840;4.382;2023-04-01T05:51:33;10.30;99.90
29207;DHT22;16247;50.840;4.382;2023-04-01T05:54:00;10.30;99.90
29207;DHT22;16247;50.840;4.382;2023-04-01T05:56:32;10.40;99.90
29207;DHT22;16247;50.840;4.382;2023-04-01T05:58:58;10.30;99.90
29207;DHT22;16247;50.840;4.382;2023-04-01T06:01:23;10.30;99.90
29207;DHT22;16247;50.840;4.382;2023-04-01T06:03:50;10.30;99.90
29207;DHT22;16247;50.840;4.382;2023-04-01T06:06:24;10.40;99.90
29207;DHT22;16247;50.840;4.382;2023-04-01T06:08:53;10.50;99.90
29207;DHT22;16247;50.840;4.382;2023-04-01T06:20:32;10.20;99.90
29207;DHT22;16247;50.840;4.382;2023-04-01T06:23:24;10.30;99.90
29207;DHT22;16247;50.840;4.382;2023-04-01T06:26:18;10.20;99.90
29207;DHT22;16247;50.840;4.382;2023-04-01T06:29:14;10.00;99.90
29207;DHT22;16247;50.840;4.382;2023-04-01T06:38:41;10.20;99.90
29207;DHT22;16247;50.840;4.382;2023-04-01T06:42:02;10.30;99.90
29207;DHT22;16247;50.840;4.382;2023-04-01T06:44:42;10.40;99.90
29207;DHT22;16247;50.840;4.382;2023-04-01T06:55:55;10.40;99.90
29207;DHT22;16247;50.840;4.382;2023-04-01T23:28:52;10.30;99.90
29207;DHT22;16247;50.840;4.382;2023-04-01T23:43:45;10.30;99.90
29207;DHT22;16247;50.840;4.382;2023-04-01T23:50:12;10.40;99.90
29207;DHT22;16247;50.840;4.382;2023-04-01T23:53:36;10.30;99.90
29207;DHT22;16247;50.840;4.382;2023-04-01T23:56:07;10.30;99.90
29207;DHT22;16247;50.840;4.382;2023-04-01T23:58:52;10.30;99.90
